»·PEaware :: SKW5844 KSLC-KDEN

SKW5844 :: KSLC-KDEN

FLIGHT INFORMATION

Flight Status: Arrived
Operator:
SkyWest Airlines
More flights by this operator :: More flights under this callsign
Pilot: Alfredo R. (12181)
Aircraft: CANADAIR CL-600 CRJ-200
(CRJ2)
More flights by this aircraft type
Origin: KSLC Salt Lake City Intl
United States
Destination: KDEN Denver Intl
United States
More flights between these airports :: More routes between these airports
Route: +RUGGD1 PERTY KAMPR LONGZ1
File this flight plan on PilotEdge
Remarks:
Altitude:
(Current/Filed)
370ft
Speed:
(Current/Filed)
425kts
Departed: 29-Jun-20 03:22 PM
Arrived: 29-Jun-20 04:29 PM
Distance/Time
Traveled:
339nm/1:07
Distance/Time
To Go:
Arrived

Flight Plot

Page will automatically refresh every two minutes.

Flight plan parsing failed; only flown route is shown


Map Options




Map Legend


Flown Route
Filed Route
Departure Airport
Arrival Airport
Navaid (VOR, NDB)
Fix

Horizontal Profiles

Position Reports

Time Latitude Longitude Heading Altitude Ground
Speed
29-Jun-20 14:22 40.787376 -111.977800 271 4232ft 0kts
29-Jun-20 14:23 40.787376 -111.977800 271 4232ft 0kts
29-Jun-20 14:24 40.787376 -111.977800 271 4232ft 0kts
29-Jun-20 14:25 40.787376 -111.977800 271 4232ft 0kts
29-Jun-20 14:26 40.787376 -111.977800 271 4232ft 0kts
29-Jun-20 14:27 40.787376 -111.977800 271 4232ft 0kts
29-Jun-20 14:28 40.787376 -111.977800 271 4232ft 0kts
29-Jun-20 14:29 40.787376 -111.977800 271 4232ft 0kts
29-Jun-20 14:30 40.787376 -111.977800 271 4232ft 0kts
29-Jun-20 14:31 40.787376 -111.977800 271 4232ft 0kts
29-Jun-20 14:32 40.787376 -111.977800 271 4232ft 0kts
29-Jun-20 14:33 40.787376 -111.977800 271 4232ft 0kts
29-Jun-20 14:34 40.787376 -111.977800 271 4232ft 0kts
29-Jun-20 14:35 40.787376 -111.977800 271 4232ft 0kts
29-Jun-20 14:36 40.787376 -111.977800 271 4232ft 0kts
29-Jun-20 14:37 40.787376 -111.977800 271 4232ft 0kts
29-Jun-20 14:38 40.787376 -111.977800 271 4232ft 0kts
29-Jun-20 14:39 40.787376 -111.977800 271 4232ft 0kts
29-Jun-20 14:40 40.787376 -111.977800 271 4232ft 0kts
29-Jun-20 14:41 40.787376 -111.977800 271 4232ft 0kts
29-Jun-20 14:42 40.787376 -111.977800 271 4232ft 0kts
29-Jun-20 14:43 40.787376 -111.977800 271 4232ft 0kts
29-Jun-20 14:44 40.787376 -111.977800 271 4232ft 0kts
29-Jun-20 14:45 40.787376 -111.977800 271 4232ft 0kts
29-Jun-20 14:46 40.787376 -111.977800 271 4232ft 0kts
29-Jun-20 14:47 40.787376 -111.977800 271 4232ft 0kts
29-Jun-20 14:48 40.787376 -111.977800 271 4232ft 0kts
29-Jun-20 14:49 40.787376 -111.977800 271 4232ft 0kts
29-Jun-20 14:50 40.787376 -111.977800 271 4232ft 0kts
29-Jun-20 14:51 40.787376 -111.977800 271 4232ft 0kts
29-Jun-20 14:52 40.787376 -111.977800 271 4232ft 0kts
29-Jun-20 14:53 40.787376 -111.977800 271 4232ft 0kts
29-Jun-20 14:54 40.787376 -111.977800 271 4232ft 0kts
29-Jun-20 14:55 40.787376 -111.977800 271 4232ft 0kts
29-Jun-20 14:56 40.787376 -111.977800 271 4232ft 0kts
29-Jun-20 14:57 40.787376 -111.977800 271 4232ft 0kts
29-Jun-20 14:58 40.787376 -111.977800 271 4232ft 0kts
29-Jun-20 14:59 40.787376 -111.977800 271 4232ft 0kts
29-Jun-20 15:00 40.787376 -111.977800 271 4232ft 0kts
29-Jun-20 15:01 40.787376 -111.977800 271 4232ft 0kts
29-Jun-20 15:02 40.787373 -111.977684 272 4232ft 2kts
29-Jun-20 15:03 40.787329 -111.976900 301 4232ft 2kts
29-Jun-20 15:04 40.787351 -111.976782 354 4232ft 0kts
29-Jun-20 15:05 40.787375 -111.976785 355 4232ft 0kts
29-Jun-20 15:06 40.787375 -111.976785 355 4232ft 0kts
29-Jun-20 15:07 40.787375 -111.976785 355 4232ft 0kts
29-Jun-20 15:08 40.787375 -111.976786 355 4232ft 0kts
29-Jun-20 15:09 40.787391 -111.976787 355 4232ft 0kts
29-Jun-20 15:10 40.788326 -111.976890 355 4232ft 7kts
29-Jun-20 15:11 40.791517 -111.977271 355 4232ft 15kts
29-Jun-20 15:12 40.796298 -111.977821 354 4232ft 19kts
29-Jun-20 15:13 40.801147 -111.978381 355 4232ft 13kts
29-Jun-20 15:14 40.804535 -111.978314 354 4232ft 14kts
29-Jun-20 15:15 40.807220 -111.978416 41 4232ft 0kts
29-Jun-20 15:16 40.807220 -111.978416 41 4232ft 0kts
29-Jun-20 15:17 40.807226 -111.978409 41 4232ft 0kts
29-Jun-20 15:18 40.807373 -111.977503 125 4232ft 7kts
29-Jun-20 15:19 40.806197 -111.976795 173 4232ft 12kts
29-Jun-20 15:20 40.804974 -111.976649 175 4232ft 15kts
29-Jun-20 15:21 40.800064 -111.976064 174 4232ft 93kts
29-Jun-20 15:23 40.756522 -112.006740 279 5846ft 206kts
29-Jun-20 15:24 40.826409 -112.129215 306 9526ft 252kts
29-Jun-20 15:25 40.895850 -112.244293 306 12632ft 268kts
29-Jun-20 15:26 40.980736 -112.234218 76 15524ft 300kts
29-Jun-20 15:27 41.000849 -112.122023 80 17837ft 320kts
29-Jun-20 15:28 41.047562 -112.016415 66 19960ft 350kts
29-Jun-20 15:29 41.091467 -111.893847 71 22269ft 389kts
29-Jun-20 15:30 41.107941 -111.758950 110 23003ft 349kts
29-Jun-20 15:31 41.069392 -111.660081 143 23204ft 284kts
29-Jun-20 15:32 41.018681 -111.563891 123 24495ft 344kts
29-Jun-20 15:33 41.014859 -111.425933 111 25884ft 372kts
29-Jun-20 15:34 40.997610 -111.291731 115 27227ft 374kts
29-Jun-20 15:35 40.979007 -111.153808 116 28395ft 382kts
29-Jun-20 15:36 40.959930 -111.013846 116 29516ft 389kts
29-Jun-20 15:37 40.940348 -110.871606 115 30578ft 396kts
29-Jun-20 15:38 40.920349 -110.727819 115 31548ft 402kts
29-Jun-20 15:38 40.903295 -110.605873 114 32055ft 405kts
29-Jun-20 15:40 40.880071 -110.441582 114 32747ft 384kts
29-Jun-20 15:41 40.859609 -110.298616 114 33891ft 401kts
29-Jun-20 15:41 40.844901 -110.196526 113 34634ft 405kts
29-Jun-20 15:43 40.818094 -110.011864 112 35939ft 411kts
29-Jun-20 15:43 40.799895 -109.887847 112 36817ft 413kts
29-Jun-20 15:45 40.773197 -109.708293 110 36969ft 439kts
29-Jun-20 15:45 40.753857 -109.578018 111 37379ft 416kts
29-Jun-20 15:46 40.731438 -109.429867 110 38004ft 419kts
29-Jun-20 15:47 40.708215 -109.277246 111 38648ft 424kts
29-Jun-20 15:48 40.684722 -109.124499 110 38957ft 426kts
29-Jun-20 15:49 40.667726 -108.965901 103 38955ft 433kts
29-Jun-20 15:50 40.657531 -108.808549 104 38955ft 427kts
29-Jun-20 15:51 40.647442 -108.655680 103 38944ft 422kts
29-Jun-20 15:52 40.637486 -108.507051 103 38948ft 418kts
29-Jun-20 15:53 40.627254 -108.357515 103 38947ft 417kts
29-Jun-20 15:54 40.616590 -108.205523 103 38933ft 418kts
29-Jun-20 15:55 40.605746 -108.052277 103 38939ft 419kts
29-Jun-20 15:56 40.595070 -107.904969 103 38939ft 420kts
29-Jun-20 15:57 40.583979 -107.754422 103 38935ft 421kts
29-Jun-20 15:58 40.572512 -107.600929 103 38228ft 430kts
29-Jun-20 15:59 40.560962 -107.448167 104 36747ft 415kts
29-Jun-20 16:00 40.549369 -107.297932 104 35274ft 418kts
29-Jun-20 16:01 40.537265 -107.143281 104 33789ft 429kts
29-Jun-20 16:02 40.524630 -106.984827 103 32290ft 438kts
29-Jun-20 16:03 40.520403 -106.821446 97 30788ft 447kts
29-Jun-20 16:04 40.498672 -106.663027 104 29300ft 441kts
29-Jun-20 16:05 40.486354 -106.521057 103 27996ft 443kts
29-Jun-20 16:06 40.472348 -106.364098 103 26528ft 433kts
29-Jun-20 16:07 40.458420 -106.210824 104 24993ft 414kts
29-Jun-20 16:08 40.445198 -106.062708 100 23483ft 406kts
29-Jun-20 16:09 40.432375 -105.917155 101 21971ft 395kts
29-Jun-20 16:10 40.411400 -105.779937 104 20471ft 380kts
29-Jun-20 16:11 40.391002 -105.650885 105 18995ft 360kts
29-Jun-20 16:12 40.371738 -105.530671 105 17452ft 323kts
29-Jun-20 16:13 40.353248 -105.415878 104 15947ft 319kts
29-Jun-20 16:14 40.337039 -105.305107 102 15005ft 295kts
29-Jun-20 16:15 40.323648 -105.205748 103 14160ft 262kts
29-Jun-20 16:16 40.310926 -105.113217 102 13446ft 253kts
29-Jun-20 16:17 40.298821 -105.021983 99 12623ft 248kts
29-Jun-20 16:18 40.288994 -104.933158 99 11978ft 240kts
29-Jun-20 16:19 40.276794 -104.844580 115 11977ft 250kts
29-Jun-20 16:20 40.231023 -104.780422 136 11162ft 219kts
29-Jun-20 16:21 40.188299 -104.728761 136 10103ft 204kts
29-Jun-20 16:22 40.146836 -104.679684 136 8871ft 197kts
29-Jun-20 16:23 40.094397 -104.665414 185 7633ft 201kts
29-Jun-20 16:24 40.040335 -104.680541 203 7107ft 190kts
29-Jun-20 16:25 39.990749 -104.685782 184 7100ft 175kts
29-Jun-20 16:26 39.944981 -104.686237 184 6285ft 154kts
29-Jun-20 16:27 39.901876 -104.686744 183 5467ft 151kts
29-Jun-20 16:28 39.875064 -104.686913 175 5335ft 26kts
29-Jun-20 16:29 39.871261 -104.685024 162 5351ft 13kts
29-Jun-20 16:30 39.865526 -104.684989 180 5322ft 20kts
29-Jun-20 16:31 39.860773 -104.685043 180 5320ft 13kts
29-Jun-20 16:32 39.856885 -104.684217 91 5327ft 12kts
29-Jun-20 16:33 39.856572 -104.677586 89 5372ft 22kts
29-Jun-20 16:34 39.856573 -104.670941 88 5411ft 22kts
29-Jun-20 16:35 39.857961 -104.668688 0 5418ft 0kts
29-Jun-20 16:36 39.857981 -104.668688 359 5418ft 0kts
29-Jun-20 16:37 39.857981 -104.668688 359 5418ft 0kts

Navigation Log

Ident Type
Flight plan parsing failed, navigation log unavailable